Time;durP1;ratioP1;P1;durP2;ratioP2;P2;SDS_P1;SDS_P2;PMS_P1;PMS_P2;Temp;Humidity;BMP_temperature;BMP_pressure;BME280_temperature;BME280_humidity;BME280_pressure;Samples;Min_cycle;Max_cycle;Signal;HPM_P1;HPM_P2
2022/03/17 00:00:13;;;;;;;23.58;16.65;;;14.70;84.70;;;;;;5003585;28;20133;-66
2022/03/17 00:02:39;;;;;;;23.33;16.17;;;14.80;88.50;;;;;;5014576;28;20132;-65
2022/03/17 00:05:08;;;;;;;21.23;16.25;;;14.80;85.50;;;;;;5015371;28;20117;-65
2022/03/17 00:07:36;;;;;;;23.33;15.93;;;14.70;88.70;;;;;;5014973;28;20088;-65
2022/03/17 00:10:06;;;;;;;24.13;16.63;;;14.80;88.50;;;;;;5015127;28;20042;-65
2022/03/17 00:12:33;;;;;;;23.98;15.75;;;15.00;88.70;;;;;;5015313;28;20042;-65
2022/03/17 00:14:59;;;;;;;24.08;16.70;;;14.80;88.50;;;;;;5014811;28;20046;-65
2022/03/17 00:17:26;;;;;;;21.83;15.60;;;14.80;88.40;;;;;;5006416;28;20396;-65
2022/03/17 00:19:53;;;;;;;23.30;16.27;;;14.50;85.90;;;;;;5014820;28;20097;-65
2022/03/17 00:22:18;;;;;;;21.63;15.82;;;14.80;88.40;;;;;;5014595;28;20054;-65
2022/03/17 00:24:46;;;;;;;24.10;15.95;;;;;;;;;;5014597;28;20049;-65
2022/03/17 00:27:12;;;;;;;22.83;15.93;;;14.90;88.50;;;;;;5014466;28;20192;-66
2022/03/17 00:29:38;;;;;;;25.27;17.10;;;14.70;88.40;;;;;;5014485;28;20026;-66
2022/03/17 00:32:04;;;;;;;24.80;17.02;;;14.90;84.70;;;;;;5014546;28;20559;-65
2022/03/17 00:34:30;;;;;;;25.55;16.73;;;14.80;88.50;;;;;;4995667;28;20084;-65
2022/03/17 00:36:57;;;;;;;23.20;17.17;;;;;;;;;;5014675;28;20080;-66
2022/03/17 00:39:23;;;;;;;25.75;17.55;;;14.70;88.40;;;;;;5013703;28;20049;-64
2022/03/17 00:41:49;;;;;;;24.40;16.70;;;;;;;;;;5014452;28;20108;-62
2022/03/17 00:44:15;;;;;;;24.17;17.42;;;14.80;88.50;;;;;;4996582;28;20444;-64
2022/03/17 00:46:41;;;;;;;21.13;15.32;;;14.50;88.40;;;;;;4992288;28;20174;-66
2022/03/17 00:49:07;;;;;;;23.60;16.98;;;14.80;88.50;;;;;;4977533;28;20038;-66
2022/03/17 00:51:33;;;;;;;23.27;17.00;;;14.70;88.50;;;;;;4994932;28;20484;-65
2022/03/17 00:53:59;;;;;;;22.23;16.40;;;14.80;88.50;;;;;;4992815;28;20040;-65
2022/03/17 00:56:26;;;;;;;24.13;16.77;;;;;;;;;;5008313;28;20484;-65
2022/03/17 00:58:52;;;;;;;26.50;17.10;;;15.10;88.70;;;;;;4989186;28;20077;-65
2022/03/17 01:01:18;;;;;;;26.40;17.08;;;14.40;88.40;;;;;;5014053;28;20408;-64
2022/03/17 01:03:46;;;;;;;24.38;16.30;;;14.50;88.40;;;;;;4997048;28;20050;-64
2022/03/17 01:06:11;;;;;;;24.83;17.38;;;14.60;88.30;;;;;;5002754;28;20042;-65
2022/03/17 01:08:38;;;;;;;25.25;17.40;;;14.90;88.60;;;;;;4996699;28;20108;-65
2022/03/17 01:11:04;;;;;;;25.42;17.45;;;;;;;;;;5013194;28;20080;-65
2022/03/17 01:13:30;;;;;;;24.15;16.85;;;14.60;85.50;;;;;;5006285;28;20128;-66
2022/03/17 01:15:56;;;;;;;23.80;16.35;;;14.90;86.10;;;;;;5012906;28;20444;-67
2022/03/17 01:18:22;;;;;;;24.17;17.05;;;;;;;;;;5013456;28;20075;-64
2022/03/17 01:20:50;;;;;;;23.63;16.30;;;14.60;86.00;;;;;;5012479;28;20077;-65
2022/03/17 01:23:17;;;;;;;24.73;16.80;;;;;;;;;;4996605;28;20058;-66
2022/03/17 01:25:43;;;;;;;22.52;16.30;;;14.70;88.50;;;;;;5012260;28;20053;-64
2022/03/17 01:28:09;;;;;;;26.80;17.30;;;14.60;88.60;;;;;;5013099;28;20496;-65
2022/03/17 01:30:35;;;;;;;24.55;16.80;;;14.70;88.60;;;;;;5013566;28;20049;-64
2022/03/17 01:33:02;;;;;;;22.88;16.55;;;14.50;89.20;;;;;;5000146;28;20078;-66
2022/03/17 01:35:27;;;;;;;24.60;17.20;;;14.60;88.50;;;;;;5002728;28;20098;-65
2022/03/17 01:37:53;;;;;;;25.60;17.42;;;14.60;88.70;;;;;;4980023;28;20069;-65
2022/03/17 01:40:19;;;;;;;26.73;17.35;;;14.60;88.90;;;;;;5012851;28;20046;-65
2022/03/17 01:42:44;;;;;;;22.98;16.42;;;14.60;88.50;;;;;;5009865;28;20056;-65
2022/03/17 01:45:10;;;;;;;24.33;17.50;;;14.80;88.70;;;;;;5014389;28;20045;-65
2022/03/17 01:47:37;;;;;;;23.27;16.90;;;14.40;88.50;;;;;;4995936;28;20057;-66
2022/03/17 01:50:08;;;;;;;23.80;16.33;;;14.70;88.60;;;;;;5013738;28;20041;-65
2022/03/17 01:52:34;;;;;;;24.35;16.63;;;14.50;88.60;;;;;;5013653;28;20109;-65
2022/03/17 01:55:00;;;;;;;22.92;16.77;;;14.40;88.50;;;;;;4995486;28;20088;-66
2022/03/17 01:57:25;;;;;;;25.02;16.73;;;14.50;89.00;;;;;;5012608;28;20034;-65
2022/03/17 01:59:51;;;;;;;24.33;16.08;;;14.40;88.60;;;;;;5002134;28;20407;-65
2022/03/17 02:02:18;;;;;;;25.95;16.95;;;14.60;88.60;;;;;;5012066;28;20556;-65
2022/03/17 02:04:43;;;;;;;23.52;16.02;;;14.80;86.20;;;;;;5013143;28;20077;-66
2022/03/17 02:07:12;;;;;;;24.88;17.10;;;14.40;88.40;;;;;;5013075;28;20073;-65
2022/03/17 02:09:38;;;;;;;25.58;16.83;;;14.80;86.20;;;;;;5013129;28;20061;-66
2022/03/17 02:14:58;;;;;;;24.27;15.98;;;;;;;;;;5012640;28;20129;-64
2022/03/17 02:17:24;;;;;;;24.58;16.63;;;;;;;;;;5008547;28;20057;-67
2022/03/17 02:19:51;;;;;;;23.70;16.30;;;14.40;88.40;;;;;;5012379;28;20105;-65
2022/03/17 02:22:19;;;;;;;25.85;15.68;;;14.80;88.80;;;;;;4995312;28;20092;-65
2022/03/17 02:27:42;;;;;;;25.98;15.35;;;14.80;88.50;;;;;;5012849;28;20050;-65
2022/03/17 02:30:09;;;;;;;24.67;15.95;;;14.90;88.70;;;;;;5013210;28;20061;-65
2022/03/17 02:32:35;;;;;;;23.50;16.52;;;14.40;88.20;;;;;;4989616;28;20121;-65
2022/03/17 02:35:05;;;;;;;24.58;16.30;;;14.80;88.50;;;;;;5012850;28;20037;-64
2022/03/17 02:37:31;;;;;;;23.48;16.38;;;15.00;88.80;;;;;;5013142;28;20045;-66
2022/03/17 02:39:59;;;;;;;26.13;16.15;;;14.70;88.50;;;;;;5015394;28;20049;-65
2022/03/17 02:42:24;;;;;;;22.67;14.75;;;14.80;88.40;;;;;;5020977;28;20081;-65
2022/03/17 02:44:50;;;;;;;25.55;16.70;;;14.70;88.30;;;;;;5013006;28;20129;-64
2022/03/17 02:47:16;;;;;;;23.77;15.80;;;15.10;89.00;;;;;;4995194;28;20399;-65
2022/03/17 02:49:42;;;;;;;23.85;16.27;;;15.00;88.70;;;;;;5004728;28;20038;-65
2022/03/17 02:52:08;;;;;;;23.13;15.13;;;14.90;88.40;;;;;;5000150;28;20058;-65
2022/03/17 02:54:34;;;;;;;22.83;14.80;;;;;;;;;;4996002;28;20137;-66
2022/03/17 02:56:59;;;;;;;24.25;14.30;;;15.00;86.90;;;;;;5012490;28;20042;-65
2022/03/17 02:59:25;;;;;;;20.67;14.18;;;15.10;88.40;;;;;;5012707;28;20534;-64
2022/03/17 03:01:51;;;;;;;21.88;15.20;;;15.20;88.50;;;;;;5010535;28;20412;-67
2022/03/17 03:04:17;;;;;;;23.35;15.23;;;14.90;88.30;;;;;;4994459;28;20050;-65
2022/03/17 03:06:46;;;;;;;23.00;14.50;;;15.00;85.60;;;;;;5011983;28;20054;-65
2022/03/17 03:09:15;;;;;;;22.98;15.52;;;15.00;88.10;;;;;;4997936;28;20085;-68
2022/03/17 03:11:40;;;;;;;22.38;15.20;;;15.10;88.20;;;;;;5015618;28;20484;-65
2022/03/17 03:14:07;;;;;;;21.60;15.07;;;15.10;88.20;;;;;;5016082;28;20053;-66
2022/03/17 03:16:34;;;;;;;20.90;14.35;;;15.20;88.50;;;;;;5015798;28;20045;-66
2022/03/17 03:19:00;;;;;;;20.23;14.30;;;;;;;;;;5015861;28;20037;-66
2022/03/17 03:21:26;;;;;;;23.25;15.65;;;14.70;87.80;;;;;;4981312;28;20057;-65
2022/03/17 03:23:51;;;;;;;21.27;14.50;;;15.10;85.60;;;;;;5007392;28;20046;-65
2022/03/17 03:26:17;;;;;;;23.92;15.32;;;14.80;88.10;;;;;;5011200;28;20392;-65
2022/03/17 03:28:43;;;;;;;23.50;15.15;;;;;;;;;;4998222;28;20053;-69
2022/03/17 03:31:09;;;;;;;22.77;15.25;;;15.10;88.10;;;;;;5014093;28;20389;-67
2022/03/17 03:33:35;;;;;;;22.05;14.50;;;15.00;88.00;;;;;;5014108;28;20106;-65
2022/03/17 03:38:46;;;;;;;22.73;15.30;;;15.00;88.10;;;;;;5015829;28;20056;-65
2022/03/17 03:41:11;;;;;;;21.50;15.05;;;15.10;88.10;;;;;;5013142;28;20117;-65
2022/03/17 03:43:38;;;;;;;20.80;14.45;;;;;;;;;;5015585;28;20128;-65
2022/03/17 03:46:03;;;;;;;23.67;14.40;;;14.90;88.00;;;;;;5016149;28;20049;-65
2022/03/17 03:48:31;;;;;;;23.45;14.85;;;;;;;;;;4998124;28;20399;-65
2022/03/17 03:50:57;;;;;;;20.88;14.32;;;14.90;87.90;;;;;;5021589;28;20042;-67
2022/03/17 03:54:12;;;;;;;21.05;14.60;;;15.00;85.50;;;;;;5014077;28;20049;-65
2022/03/17 03:56:09;;;;;;;23.00;14.68;;;15.00;87.50;;;;;;5016285;28;20073;-65
2022/03/17 03:58:34;;;;;;;22.50;14.63;;;15.10;88.10;;;;;;4999112;28;20497;-65
2022/03/17 04:01:00;;;;;;;21.25;14.82;;;15.00;87.90;;;;;;4997374;28;20050;-65
2022/03/17 04:03:26;;;;;;;22.77;14.82;;;14.70;85.40;;;;;;4996427;28;20080;-65
2022/03/17 04:05:52;;;;;;;22.75;14.88;;;14.90;88.10;;;;;;4996173;28;20049;-65
2022/03/17 04:08:18;;;;;;;24.08;14.82;;;14.90;87.90;;;;;;5010372;28;20054;-65
2022/03/17 04:10:44;;;;;;;24.17;15.07;;;15.00;88.30;;;;;;4994717;28;20476;-64
2022/03/17 04:13:09;;;;;;;22.55;15.50;;;15.00;88.10;;;;;;4995381;28;20073;-65
2022/03/17 04:15:35;;;;;;;21.92;15.18;;;14.90;85.60;;;;;;5000440;28;20050;-65
2022/03/17 04:18:01;;;;;;;23.80;15.18;;;15.00;88.20;;;;;;4984106;28;20049;-65
2022/03/17 04:20:26;;;;;;;21.20;15.38;;;15.20;88.50;;;;;;5006434;28;20047;-67
2022/03/17 04:22:53;;;;;;;23.50;15.00;;;14.90;88.20;;;;;;4996006;28;20046;-64
2022/03/17 04:25:18;;;;;;;22.10;15.18;;;15.20;88.30;;;;;;4989071;28;20048;-65
2022/03/17 04:27:44;;;;;;;24.00;15.65;;;14.80;85.60;;;;;;4996198;28;20472;-66
2022/03/17 04:30:10;;;;;;;22.88;14.90;;;14.90;87.40;;;;;;4995612;28;20042;-65
2022/03/17 04:32:36;;;;;;;21.33;14.13;;;14.70;88.10;;;;;;5007745;28;20064;-67
2022/03/17 04:35:02;;;;;;;22.05;14.55;;;15.00;84.30;;;;;;4996112;28;20064;-68
2022/03/17 04:37:28;;;;;;;20.77;14.95;;;15.00;88.30;;;;;;5014408;28;20085;-65
2022/03/17 04:39:53;;;;;;;24.25;15.15;;;14.80;87.50;;;;;;4997706;28;20053;-65
2022/03/17 04:42:19;;;;;;;22.73;16.23;;;15.00;88.10;;;;;;5014309;28;20046;-65
2022/03/17 04:44:45;;;;;;;22.95;16.40;;;14.80;88.30;;;;;;5014841;28;20053;-66
2022/03/17 04:47:11;;;;;;;21.83;15.57;;;14.90;88.70;;;;;;5014326;28;20056;-66
2022/03/17 04:49:37;;;;;;;21.98;14.73;;;14.70;88.50;;;;;;4996666;28;20045;-65
2022/03/17 04:53:26;;;;;;;21.50;14.95;;;15.00;88.60;;;;;;4962272;28;20050;-66
2022/03/17 04:54:48;;;;;;;23.73;15.73;;;14.80;88.30;;;;;;4993549;28;20054;-65
2022/03/17 04:57:14;;;;;;;21.05;15.25;;;14.80;85.90;;;;;;4998107;28;20046;-65
2022/03/17 04:59:40;;;;;;;22.10;15.02;;;;;;;;;;4997287;28;20045;-65
2022/03/17 05:02:06;;;;;;;21.73;15.43;;;14.60;88.60;;;;;;5012790;28;20393;-64
2022/03/17 05:04:32;;;;;;;23.08;15.85;;;14.80;86.20;;;;;;5013854;28;20049;-64
2022/03/17 05:06:58;;;;;;;24.98;16.15;;;15.00;88.60;;;;;;4994830;28;20103;-65
2022/03/17 05:09:24;;;;;;;22.10;15.68;;;14.90;86.20;;;;;;5014255;28;20106;-66
2022/03/17 05:11:50;;;;;;;23.58;16.45;;;14.80;88.80;;;;;;5013551;28;20034;-65
2022/03/17 05:14:15;;;;;;;22.63;16.63;;;14.60;88.80;;;;;;5014067;28;20052;-65
2022/03/17 05:16:41;;;;;;;21.05;15.32;;;15.00;86.40;;;;;;4995787;28;20422;-64
2022/03/17 05:19:07;;;;;;;20.52;15.65;;;;;;;;;;5014122;28;20038;-65
2022/03/17 05:21:34;;;;;;;22.02;16.45;;;;;;;;;;5014164;28;20052;-65
2022/03/17 05:23:59;;;;;;;23.98;16.35;;;14.70;89.10;;;;;;4995908;28;20476;-62
2022/03/17 05:26:25;;;;;;;23.27;15.32;;;14.90;89.40;;;;;;5014367;28;20049;-64
2022/03/17 05:28:51;;;;;;;22.40;16.17;;;14.80;86.90;;;;;;4996894;28;20480;-62
2022/03/17 05:31:17;;;;;;;23.45;16.90;;;14.80;89.60;;;;;;4995893;28;20046;-63
2022/03/17 05:33:42;;;;;;;22.20;15.93;;;14.80;90.10;;;;;;5012977;28;20433;-63
2022/03/17 05:36:08;;;;;;;23.55;17.05;;;15.00;89.70;;;;;;5014123;28;20125;-64
2022/03/17 05:38:34;;;;;;;22.45;16.27;;;14.60;89.60;;;;;;4980019;28;20050;-64
2022/03/17 05:41:00;;;;;;;22.70;15.82;;;15.00;90.00;;;;;;4995416;28;20046;-64
2022/03/17 05:43:25;;;;;;;24.83;17.63;;;14.90;90.10;;;;;;4994220;28;20047;-65
2022/03/17 05:45:51;;;;;;;24.08;17.27;;;14.90;90.00;;;;;;4994464;28;20042;-64
2022/03/17 05:48:17;;;;;;;23.08;17.88;;;;;;;;;;4994151;28;20133;-63
2022/03/17 05:50:45;;;;;;;24.30;17.15;;;14.70;90.10;;;;;;4994260;28;20047;-64
2022/03/17 05:53:10;;;;;;;23.25;17.33;;;14.90;90.50;;;;;;4994166;28;20051;-64
2022/03/17 05:55:36;;;;;;;25.10;17.83;;;14.70;90.20;;;;;;4994429;28;20045;-71
2022/03/17 05:58:02;;;;;;;25.63;17.70;;;14.90;90.40;;;;;;4994719;28;20049;-62
2022/03/17 06:00:28;;;;;;;23.38;17.88;;;15.00;88.40;;;;;;4993886;28;20065;-62
2022/03/17 06:02:54;;;;;;;24.15;17.98;;;15.00;90.30;;;;;;4994476;28;20046;-72
2022/03/17 06:05:20;;;;;;;23.10;18.33;;;14.90;88.40;;;;;;4994107;28;20038;-63
2022/03/17 06:07:50;;;;;;;24.45;17.67;;;15.00;90.40;;;;;;5011097;28;20104;-64
2022/03/17 06:10:27;;;;;;;24.65;18.00;;;15.00;90.50;;;;;;5013779;28;20392;-67
2022/03/17 06:12:53;;;;;;;23.48;17.75;;;14.90;90.30;;;;;;5012124;28;20038;-72
2022/03/17 06:15:23;;;;;;;24.67;17.40;;;15.00;90.50;;;;;;4994154;28;20433;-64
2022/03/17 06:17:54;;;;;;;23.05;16.95;;;15.30;90.40;;;;;;4993507;28;20042;-61
2022/03/17 06:20:23;;;;;;;21.77;16.42;;;15.00;88.20;;;;;;4994129;28;20053;-61
2022/03/17 06:22:50;;;;;;;19.70;14.80;;;15.10;87.80;;;;;;4994070;28;20121;-61
2022/03/17 06:25:17;;;;;;;20.52;15.50;;;15.20;90.40;;;;;;4993751;28;20078;-72
2022/03/17 06:27:44;;;;;;;19.10;14.13;;;14.90;88.40;;;;;;4994043;28;20050;-68
2022/03/17 06:30:12;;;;;;;21.65;14.50;;;15.10;90.40;;;;;;4979750;28;20045;-72
2022/03/17 06:32:39;;;;;;;17.63;13.02;;;15.20;90.60;;;;;;5013602;28;20504;-63
2022/03/17 06:35:15;;;;;;;19.00;13.77;;;15.00;90.20;;;;;;5013350;28;20046;-67
2022/03/17 06:37:41;;;;;;;20.77;13.10;;;15.30;90.30;;;;;;4997042;28;20121;-62
2022/03/17 06:40:07;;;;;;;18.40;12.30;;;15.30;90.20;;;;;;5013407;28;20365;-65
2022/03/17 06:42:33;;;;;;;16.10;11.45;;;15.20;90.20;;;;;;5014405;28;20577;-63
2022/03/17 06:44:59;;;;;;;15.82;11.43;;;15.30;90.30;;;;;;5017733;28;20125;-62
2022/03/17 06:47:25;;;;;;;15.23;10.80;;;15.10;90.30;;;;;;5011242;28;20050;-62
2022/03/17 06:49:51;;;;;;;14.77;10.23;;;15.20;90.20;;;;;;4980238;28;20046;-62
2022/03/17 06:52:17;;;;;;;14.57;10.00;;;15.30;88.10;;;;;;4997576;28;20044;-71
2022/03/17 06:54:43;;;;;;;13.55;9.77;;;15.40;90.20;;;;;;4979878;28;20086;-64
2022/03/17 06:57:09;;;;;;;12.50;8.95;;;15.30;87.90;;;;;;4997610;28;20101;-66
2022/03/17 06:59:35;;;;;;;12.43;8.52;;;15.40;90.20;;;;;;4997528;28;20085;-66
2022/03/17 07:02:00;;;;;;;12.60;8.80;;;15.60;90.30;;;;;;4996891;28;20067;-62
2022/03/17 07:04:26;;;;;;;11.88;8.23;;;15.60;90.20;;;;;;4985623;28;20132;-64
2022/03/17 07:06:52;;;;;;;12.93;8.05;;;15.50;88.30;;;;;;5016713;28;20064;-65
2022/03/17 07:09:18;;;;;;;12.13;8.45;;;15.50;87.80;;;;;;5016612;28;20094;-71
2022/03/17 07:11:44;;;;;;;12.88;7.63;;;15.40;90.00;;;;;;5016894;28;20116;-65
2022/03/17 07:14:10;;;;;;;14.05;7.05;;;15.30;90.10;;;;;;4982661;28;20050;-66
2022/03/17 07:16:36;;;;;;;11.00;7.63;;;15.40;90.00;;;;;;5016856;28;20397;-67
2022/03/17 07:19:02;;;;;;;9.98;6.40;;;15.20;90.00;;;;;;5028742;28;20045;-61
2022/03/17 07:21:29;;;;;;;11.10;5.85;;;;;;;;;;5010303;28;20050;-61
2022/03/17 07:23:54;;;;;;;10.38;6.00;;;15.50;90.10;;;;;;4997613;28;20125;-68
2022/03/17 07:26:20;;;;;;;10.95;6.32;;;15.60;90.10;;;;;;4997061;28;20186;-61
2022/03/17 07:28:47;;;;;;;10.32;5.57;;;;;;;;;;5011095;28;20417;-68
2022/03/17 07:31:12;;;;;;;10.05;5.55;;;15.60;90.00;;;;;;4997681;28;20057;-69
2022/03/17 07:33:38;;;;;;;12.45;5.53;;;15.70;90.10;;;;;;5016175;28;20377;-68
2022/03/17 07:36:05;;;;;;;8.35;5.15;;;15.60;90.00;;;;;;5016276;28;20045;-69
2022/03/17 07:38:30;;;;;;;9.60;5.30;;;15.60;88.80;;;;;;5009713;28;20061;-62
2022/03/17 07:40:56;;;;;;;8.60;4.60;;;15.30;90.00;;;;;;5014180;28;20042;-73
2022/03/17 07:43:23;;;;;;;8.82;4.05;;;;;;;;;;5015458;28;20104;-72
2022/03/17 07:45:49;;;;;;;8.50;4.50;;;15.40;89.90;;;;;;5015901;28;20053;-72
2022/03/17 07:48:15;;;;;;;8.38;4.50;;;15.30;89.80;;;;;;5015962;28;20510;-72
2022/03/17 07:50:41;;;;;;;8.57;4.55;;;15.50;90.00;;;;;;5016203;28;20034;-72
2022/03/17 07:53:07;;;;;;;8.88;4.35;;;15.60;87.50;;;;;;5003396;28;20046;-74
2022/03/17 07:55:33;;;;;;;6.57;4.03;;;15.70;90.00;;;;;;5002129;28;20046;-72
2022/03/17 07:58:00;;;;;;;7.30;3.67;;;16.10;90.10;;;;;;4982403;28;20395;-73
2022/03/17 08:00:26;;;;;;;7.63;3.85;;;15.80;89.90;;;;;;5015915;28;20128;-73
2022/03/17 08:02:51;;;;;;;7.45;3.47;;;15.80;89.90;;;;;;5015621;28;20128;-73
2022/03/17 08:05:17;;;;;;;8.23;3.53;;;15.90;87.40;;;;;;4998788;28;20392;-74
2022/03/17 08:07:43;;;;;;;6.43;3.25;;;15.90;90.10;;;;;;4998510;28;20483;-74
2022/03/17 08:10:09;;;;;;;8.52;3.78;;;15.70;90.10;;;;;;5015354;28;20053;-73
2022/03/17 08:12:35;;;;;;;6.80;3.00;;;;;;;;;;5009301;28;20046;-73
2022/03/17 08:15:02;;;;;;;8.85;3.40;;;15.70;89.80;;;;;;5016613;28;20038;-74
2022/03/17 08:17:28;;;;;;;7.93;3.58;;;15.60;90.00;;;;;;5015906;28;20045;-74
2022/03/17 08:19:54;;;;;;;6.63;3.05;;;16.00;90.10;;;;;;5015630;28;20482;-74
2022/03/17 08:22:20;;;;;;;7.25;3.03;;;15.80;90.10;;;;;;5015566;28;20128;-74
2022/03/17 08:24:45;;;;;;;5.32;2.70;;;15.90;90.00;;;;;;5015273;28;20575;-74
2022/03/17 08:27:11;;;;;;;7.32;2.95;;;15.90;90.00;;;;;;4998088;28;20125;-74
2022/03/17 08:29:40;;;;;;;7.93;2.80;;;15.70;90.00;;;;;;5022542;28;20391;-74
2022/03/17 08:32:06;;;;;;;8.25;2.90;;;15.70;90.00;;;;;;5019247;28;20357;-74
2022/03/17 08:34:32;;;;;;;6.28;2.67;;;15.60;89.80;;;;;;5015373;28;20097;-73
2022/03/17 08:36:59;;;;;;;7.55;2.50;;;;;;;;;;4997689;28;20049;-74
2022/03/17 08:39:25;;;;;;;5.47;2.38;;;16.10;90.00;;;;;;4997714;28;20128;-74
2022/03/17 08:41:52;;;;;;;7.30;2.67;;;;;;;;;;4997144;28;20054;-74
2022/03/17 08:44:18;;;;;;;7.20;2.53;;;15.80;90.10;;;;;;5015231;28;20096;-74
2022/03/17 08:49:28;;;;;;;7.90;2.83;;;15.80;89.80;;;;;;4980702;28;20078;-62
2022/03/17 08:51:59;;;;;;;6.13;2.28;;;15.90;90.10;;;;;;4996011;28;20104;-61
2022/03/17 08:54:30;;;;;;;8.98;2.47;;;15.70;90.00;;;;;;4995380;28;20043;-61
2022/03/17 08:56:59;;;;;;;7.32;2.15;;;15.80;90.00;;;;;;4978156;28;20052;-61
2022/03/17 08:59:30;;;;;;;5.07;2.28;;;15.90;85.50;;;;;;4994658;28;20046;-61
2022/03/17 09:02:00;;;;;;;6.40;2.20;;;15.80;87.00;;;;;;4993917;28;20058;-61
2022/03/17 09:04:27;;;;;;;6.68;2.20;;;16.10;90.00;;;;;;4995180;28;20508;-72
2022/03/17 09:06:58;;;;;;;7.10;2.58;;;15.90;90.00;;;;;;4978580;28;20054;-73
2022/03/17 09:09:26;;;;;;;8.27;2.47;;;15.80;90.10;;;;;;5014653;28;20064;-73
2022/03/17 09:11:52;;;;;;;8.25;2.17;;;15.90;90.00;;;;;;5014552;28;20046;-72
2022/03/17 09:14:18;;;;;;;6.18;1.90;;;15.80;90.00;;;;;;4996562;28;20052;-60
2022/03/17 09:16:44;;;;;;;5.68;1.88;;;16.10;90.00;;;;;;4996458;28;20050;-61
2022/03/17 09:19:10;;;;;;;7.68;2.15;;;16.00;90.00;;;;;;5014548;28;20108;-73
2022/03/17 09:21:35;;;;;;;7.55;2.20;;;15.70;90.00;;;;;;4999067;28;20481;-67
2022/03/17 09:24:03;;;;;;;7.32;2.00;;;16.00;89.80;;;;;;4995159;28;20053;-72
2022/03/17 09:26:30;;;;;;;6.15;2.30;;;16.10;89.90;;;;;;4994816;28;20113;-70
2022/03/17 09:28:56;;;;;;;8.10;2.05;;;;;;;;;;4994764;28;20050;-64
2022/03/17 09:31:25;;;;;;;7.38;2.10;;;15.90;89.80;;;;;;4994416;28;20492;-64
2022/03/17 09:33:50;;;;;;;5.72;2.10;;;16.10;89.60;;;;;;4994677;28;20417;-66
2022/03/17 09:36:16;;;;;;;9.40;2.50;;;16.00;89.70;;;;;;4994210;28;20061;-64
2022/03/17 09:38:42;;;;;;;10.60;2.65;;;16.20;89.80;;;;;;4994466;28;20049;-62
2022/03/17 09:41:23;;;;;;;6.72;2.40;;;16.10;89.80;;;;;;4998048;28;20050;-70
2022/03/17 09:43:51;;;;;;;5.72;2.05;;;16.10;89.50;;;;;;5009206;28;20069;-66
2022/03/17 09:46:17;;;;;;;5.05;1.77;;;15.90;89.70;;;;;;4996631;28;20109;-68
2022/03/17 09:48:43;;;;;;;6.97;2.28;;;16.20;89.50;;;;;;4996767;28;20052;-68
2022/03/17 09:51:09;;;;;;;9.10;2.10;;;16.10;89.50;;;;;;4996616;28;20049;-69
2022/03/17 09:53:35;;;;;;;6.60;2.08;;;16.30;89.50;;;;;;5013886;28;20064;-69
2022/03/17 09:56:01;;;;;;;8.25;2.78;;;16.40;89.60;;;;;;4994819;28;20485;-68
2022/03/17 09:58:26;;;;;;;11.13;3.30;;;16.50;89.90;;;;;;4977001;28;20045;-69
2022/03/17 10:00:55;;;;;;;11.80;3.35;;;16.40;89.60;;;;;;4994003;28;20057;-61
2022/03/17 10:03:25;;;;;;;10.63;3.03;;;16.10;89.40;;;;;;5003673;28;20053;-66
2022/03/17 10:05:51;;;;;;;10.80;3.20;;;16.40;89.60;;;;;;5010907;28;20037;-67
2022/03/17 10:08:18;;;;;;;12.50;3.00;;;16.30;89.40;;;;;;5013417;28;20049;-67
2022/03/17 10:10:44;;;;;;;8.65;2.78;;;16.50;89.50;;;;;;5013183;28;20065;-66
2022/03/17 10:13:14;;;;;;;9.95;2.75;;;16.20;86.90;;;;;;5012736;28;20049;-68
2022/03/17 10:15:45;;;;;;;9.23;2.55;;;16.30;89.50;;;;;;5010751;28;20048;-61
2022/03/17 10:18:23;;;;;;;10.23;2.70;;;16.50;90.10;;;;;;5013025;28;20041;-68
2022/03/17 10:21:15;;;;;;;7.45;2.35;;;16.10;86.80;;;;;;4995823;28;20041;-65
2022/03/17 10:23:47;;;;;;;8.80;2.08;;;16.40;89.70;;;;;;5004594;28;20500;-65
2022/03/17 10:26:38;;;;;;;13.00;2.83;;;16.20;89.70;;;;;;5012819;28;20057;-67
2022/03/17 10:29:10;;;;;;;7.22;2.30;;;16.50;89.60;;;;;;5000551;28;20104;-65
2022/03/17 10:32:07;;;;;;;9.13;2.58;;;16.80;85.40;;;;;;5005308;28;20045;-65
2022/03/17 10:34:36;;;;;;;9.43;2.50;;;16.80;89.30;;;;;;4978359;28;20054;-63
2022/03/17 10:37:09;;;;;;;12.13;2.67;;;;;;;;;;4976431;28;20057;-61
2022/03/17 10:39:36;;;;;;;11.32;2.50;;;16.60;89.30;;;;;;4993561;28;20492;-61
2022/03/17 10:42:09;;;;;;;11.52;2.30;;;16.80;89.60;;;;;;4993458;28;20484;-62
2022/03/17 10:44:35;;;;;;;8.23;2.35;;;16.70;89.30;;;;;;4994856;28;20050;-68
2022/03/17 10:47:01;;;;;;;23.33;2.53;;;16.90;89.30;;;;;;4991933;28;20091;-62
2022/03/17 10:49:30;;;;;;;7.20;2.53;;;16.80;86.40;;;;;;4993864;28;20092;-62
2022/03/17 10:51:57;;;;;;;8.55;2.67;;;;;;;;;;4993345;28;20053;-62
2022/03/17 10:54:23;;;;;;;11.13;2.80;;;;;;;;;;4994262;28;20038;-62
2022/03/17 10:57:05;;;;;;;9.80;2.30;;;16.60;89.10;;;;;;4993848;28;20105;-61
2022/03/17 10:59:38;;;;;;;9.82;2.20;;;17.00;85.40;;;;;;4993479;28;20503;-66
2022/03/17 11:02:10;;;;;;;7.25;2.10;;;16.70;88.80;;;;;;4980779;28;20058;-65
2022/03/17 11:04:37;;;;;;;6.30;2.45;;;16.80;87.20;;;;;;5013014;28;20057;-63
2022/03/17 11:07:10;;;;;;;9.95;2.13;;;16.80;84.40;;;;;;5012619;28;20488;-62
2022/03/17 11:09:39;;;;;;;7.57;2.38;;;;;;;;;;5012167;28;20065;-62
2022/03/17 11:12:09;;;;;;;7.40;2.10;;;16.90;88.80;;;;;;4993714;28;20437;-61
2022/03/17 11:14:51;;;;;;;7.78;1.80;;;16.80;88.70;;;;;;4993587;28;20447;-62
2022/03/17 11:17:26;;;;;;;4.57;1.80;;;16.80;84.30;;;;;;4992353;28;20054;-61
2022/03/17 11:19:53;;;;;;;7.47;1.80;;;16.90;85.80;;;;;;4993071;28;20086;-62
2022/03/17 11:22:22;;;;;;;5.45;2.15;;;17.30;85.90;;;;;;4993815;28;20562;-62
2022/03/17 11:25:08;;;;;;;7.20;2.25;;;17.10;88.20;;;;;;5000328;28;20137;-64
2022/03/17 11:27:46;;;;;;;7.28;1.67;;;17.10;88.50;;;;;;5011766;28;20058;-65
2022/03/17 11:30:15;;;;;;;9.18;2.20;;;16.90;88.40;;;;;;5015037;28;20046;-67
2022/03/17 11:32:54;;;;;;;8.10;1.73;;;17.10;85.70;;;;;;5014708;28;20551;-69
2022/03/17 11:35:29;;;;;;;8.57;1.90;;;17.20;88.40;;;;;;5014196;28;20042;-68
2022/03/17 11:38:18;;;;;;;6.43;1.98;;;17.30;85.10;;;;;;4998144;28;20444;-67
2022/03/17 11:41:13;;;;;;;10.57;2.67;;;17.40;88.00;;;;;;4996520;28;20129;-67
2022/03/17 11:43:41;;;;;;;7.53;2.20;;;17.40;87.90;;;;;;5002191;28;20047;-63
2022/03/17 11:46:14;;;;;;;9.50;2.15;;;17.30;87.80;;;;;;4996746;28;20233;-62
2022/03/17 11:48:44;;;;;;;8.88;2.10;;;17.70;88.00;;;;;;4996040;28;20050;-62
2022/03/17 11:51:12;;;;;;;6.28;1.92;;;17.60;87.80;;;;;;4996687;28;20047;-68
2022/03/17 11:53:50;;;;;;;5.88;1.80;;;17.60;87.70;;;;;;4996829;28;20038;-62
2022/03/17 11:56:32;;;;;;;6.97;1.63;;;17.70;83.60;;;;;;4996519;28;20038;-69
2022/03/17 11:58:58;;;;;;;6.28;1.88;;;17.50;87.40;;;;;;5005025;28;20127;-68
2022/03/17 12:01:28;;;;;;;6.30;1.85;;;17.40;87.30;;;;;;4992213;28;20090;-66
2022/03/17 12:03:56;;;;;;;7.10;1.60;;;17.80;84.80;;;;;;4996695;28;20053;-67
2022/03/17 12:06:23;;;;;;;5.13;1.60;;;17.30;84.10;;;;;;5015850;28;20033;-67
2022/03/17 12:08:58;;;;;;;6.15;1.80;;;17.80;87.30;;;;;;5001285;28;20412;-67
2022/03/17 12:11:25;;;;;;;7.18;1.60;;;17.80;87.00;;;;;;4966007;28;20058;-66
2022/03/17 12:14:46;;;;;;;5.32;1.90;;;17.70;87.20;;;;;;4976656;28;20051;-62
2022/03/17 12:17:05;;;;;;;;;;;17.70;84.50;;;;;;4973914;28;20059;-62
2022/03/17 12:19:38;;;;;;;8.80;2.13;;;17.60;87.10;;;;;;4959363;28;19918;-61
2022/03/17 12:22:13;;;;;;;;;;;18.00;84.70;;;;;;4975354;28;20047;-61
2022/03/17 12:24:47;;;;;;;4.70;1.20;;;17.60;84.10;;;;;;4976553;28;19929;-61
2022/03/17 12:27:59;;;;;;;8.93;2.10;;;17.70;84.50;;;;;;4964069;28;20053;-67
2022/03/17 12:30:25;;;;;;;6.07;1.60;;;17.60;87.20;;;;;;4955019;29;20142;-66
2022/03/17 12:32:58;;;;;;;5.55;2.08;;;17.80;87.20;;;;;;4954376;29;20062;-67
2022/03/17 12:35:31;;;;;;;7.60;1.90;;;17.80;87.20;;;;;;4936974;29;20051;-66
2022/03/17 12:38:02;;;;;;;12.95;2.28;;;17.80;87.20;;;;;;4949285;29;20042;-61
2022/03/17 12:40:50;;;;;;;8.40;2.00;;;17.90;83.90;;;;;;4955967;28;20059;-68
2022/03/17 12:43:17;;;;;;;6.93;2.38;;;17.70;83.80;;;;;;4927064;29;20082;-63
2022/03/17 12:45:44;;;;;;;37.17;3.90;;;18.10;86.70;;;;;;4956004;28;20059;-64
2022/03/17 12:48:10;;;;;;;20.85;2.83;;;;;;;;;;4944906;28;20050;-66
2022/03/17 12:50:36;;;;;;;16.95;2.60;;;17.70;86.30;;;;;;4964345;28;20050;-62
2022/03/17 12:53:02;;;;;;;11.80;2.00;;;18.10;86.50;;;;;;4961543;28;20047;-66
2022/03/17 12:55:29;;;;;;;12.00;2.80;;;18.10;86.40;;;;;;4963489;28;20130;-61
2022/03/17 12:57:57;;;;;;;8.23;1.90;;;17.70;86.20;;;;;;4953068;29;20187;-63
2022/03/17 13:00:23;;;;;;;10.40;2.13;;;18.00;86.30;;;;;;4960913;28;20058;-62